createdAt,value
2023-02-12T00:01:38.410Z,21.67
2023-02-12T00:04:05.223Z,19.48
2023-02-12T00:06:31.953Z,21.85
2023-02-12T00:08:59.215Z,21.10
2023-02-12T00:11:28.541Z,20.52
2023-02-12T00:13:55.808Z,21.17
2023-02-12T00:16:24.447Z,23.73
2023-02-12T00:18:54.018Z,20.92
2023-02-12T00:21:21.360Z,28.17
2023-02-12T00:23:48.701Z,20.15
2023-02-12T00:26:19.630Z,22.13
2023-02-12T00:28:46.587Z,24.73
2023-02-12T00:31:15.609Z,26.23
2023-02-12T00:33:42.556Z,23.45
2023-02-12T00:36:14.739Z,24.38
2023-02-12T00:38:41.516Z,26.75
2023-02-12T00:41:08.275Z,31.98
2023-02-12T00:43:35.064Z,23.60
2023-02-12T00:46:01.969Z,24.25
2023-02-12T00:48:29.365Z,29.45
2023-02-12T00:50:56.062Z,25.92
2023-02-12T00:53:24.140Z,26.25
2023-02-12T00:55:50.876Z,24.95
2023-02-12T00:58:19.023Z,32.70
2023-02-12T01:00:45.923Z,28.55
2023-02-12T01:03:12.837Z,28.55
2023-02-12T01:05:39.586Z,27.63
2023-02-12T01:08:06.434Z,29.20
2023-02-12T01:10:34.510Z,33.33
2023-02-12T01:13:01.261Z,30.02
2023-02-12T01:15:27.986Z,24.75
2023-02-12T01:17:55.926Z,35.30
2023-02-12T01:20:24.765Z,30.27
2023-02-12T01:22:52.017Z,28.88
2023-02-12T01:25:20.684Z,29.20
2023-02-12T01:27:48.979Z,27.85
2023-02-12T01:30:16.360Z,31.45
2023-02-12T01:32:43.442Z,27.33
2023-02-12T01:35:10.333Z,28.27
2023-02-12T01:37:37.752Z,27.55
2023-02-12T01:40:05.396Z,30.45
2023-02-12T01:42:32.124Z,31.27
2023-02-12T01:45:44.293Z,29.52
2023-02-12T01:48:11.436Z,28.08
2023-02-12T01:50:38.540Z,34.17
2023-02-12T01:53:05.360Z,30.20
2023-02-12T01:55:32.232Z,31.35
2023-02-12T01:57:59.072Z,26.80
2023-02-12T02:00:25.846Z,30.70
2023-02-12T02:02:57.094Z,27.90
2023-02-12T02:05:31.182Z,29.95
2023-02-12T02:10:24.443Z,27.55
2023-02-12T02:12:51.202Z,26.75
2023-02-12T02:15:18.063Z,30.80
2023-02-12T02:17:52.549Z,33.47
2023-02-12T02:21:04.626Z,33.00
2023-02-12T02:23:46.536Z,29.77
2023-02-12T02:26:43.712Z,27.50
2023-02-12T02:29:41.595Z,28.77
2023-02-12T02:32:16.726Z,32.90
2023-02-12T02:34:50.761Z,28.25
2023-02-12T02:39:51.965Z,29.80
2023-02-12T02:42:24.945Z,28.47
2023-02-12T02:44:53.961Z,31.77
2023-02-12T02:47:27.772Z,31.75
2023-02-12T02:49:59.240Z,32.22
2023-02-12T02:52:39.575Z,34.97
2023-02-12T02:55:09.296Z,28.23
2023-02-12T02:57:41.510Z,33.17
2023-02-12T03:00:14.266Z,32.75
2023-02-12T03:02:47.615Z,32.92
2023-02-12T03:05:19.456Z,35.40
2023-02-12T03:07:50.594Z,32.97
2023-02-12T03:10:19.647Z,28.08
2023-02-12T03:12:52.786Z,37.80
2023-02-12T03:15:25.088Z,39.93
2023-02-12T03:17:53.476Z,35.83
2023-02-12T03:20:24.597Z,37.80
2023-02-12T03:22:55.474Z,40.30
2023-02-12T03:25:26.583Z,39.67
2023-02-12T03:28:06.493Z,41.17
2023-02-12T03:30:40.177Z,29.20
2023-02-12T03:33:21.723Z,27.67
2023-02-12T03:35:56.093Z,30.10
2023-02-12T03:38:31.466Z,32.85
2023-02-12T03:41:04.335Z,28.65
2023-02-12T03:43:39.113Z,31.90
2023-02-12T03:46:15.403Z,32.63
2023-02-12T03:48:51.108Z,33.80
2023-02-12T03:51:23.301Z,31.23
2023-02-12T03:53:50.189Z,29.35
2023-02-12T03:56:22.287Z,32.80
2023-02-12T03:58:48.990Z,35.10
2023-02-12T04:01:15.879Z,34.92
2023-02-12T04:03:44.389Z,39.72
2023-02-12T04:06:20.682Z,39.83
2023-02-12T04:08:47.437Z,34.50
2023-02-12T04:11:25.336Z,39.80
2023-02-12T04:14:08.112Z,31.33
2023-02-12T04:16:41.454Z,36.38
2023-02-12T04:19:13.595Z,34.85
2023-02-12T04:21:53.364Z,31.75
2023-02-12T04:24:28.369Z,35.25
2023-02-12T04:26:59.896Z,31.25
2023-02-12T04:29:33.049Z,30.60
2023-02-12T04:32:06.670Z,35.95
2023-02-12T04:34:39.452Z,30.30
2023-02-12T04:37:12.514Z,33.33
2023-02-12T04:39:40.912Z,29.77
2023-02-12T04:42:07.917Z,39.58
2023-02-12T04:44:38.574Z,34.88
2023-02-12T04:47:05.303Z,37.03
2023-02-12T04:49:32.043Z,30.60
2023-02-12T04:52:00.157Z,35.13
2023-02-12T04:54:26.978Z,35.80
2023-02-12T04:56:53.695Z,31.83
2023-02-12T04:59:20.448Z,32.15
2023-02-12T05:01:47.250Z,32.28
2023-02-12T05:04:15.356Z,36.55
2023-02-12T05:06:43.661Z,32.00
2023-02-12T05:09:14.812Z,32.15
2023-02-12T05:11:41.786Z,34.50
2023-02-12T05:14:08.636Z,32.35
2023-02-12T05:16:35.411Z,30.25
2023-02-12T05:19:02.137Z,31.27
2023-02-12T05:21:28.837Z,39.42
2023-02-12T05:23:55.562Z,34.60
2023-02-12T05:26:24.690Z,36.83
2023-02-12T05:28:51.404Z,30.33
2023-02-12T05:31:21.643Z,32.92
2023-02-12T05:33:50.084Z,31.50
2023-02-12T05:36:18.726Z,30.92
2023-02-12T05:38:45.680Z,24.25
2023-02-12T05:41:14.762Z,23.63
2023-02-12T05:43:43.321Z,35.13
2023-02-12T05:46:11.037Z,34.17
2023-02-12T05:48:38.446Z,37.38
2023-02-12T05:51:06.936Z,38.60
2023-02-12T05:53:33.837Z,29.77
2023-02-12T05:56:12.882Z,31.98
2023-02-12T05:58:40.956Z,31.08
2023-02-12T06:01:14.852Z,35.92
2023-02-12T06:03:42.076Z,30.15
2023-02-12T06:06:09.342Z,31.75
2023-02-12T06:08:36.474Z,33.88
2023-02-12T06:11:04.221Z,37.40
2023-02-12T06:13:31.878Z,40.05
2023-02-12T06:15:59.549Z,42.53
2023-02-12T06:18:28.419Z,42.28
2023-02-12T06:20:55.150Z,37.53
2023-02-12T06:23:22.274Z,33.47
2023-02-12T06:25:49.254Z,42.38
2023-02-12T06:28:16.265Z,35.70
2023-02-12T06:30:43.312Z,37.75
2023-02-12T06:33:10.271Z,36.90
2023-02-12T06:35:38.868Z,29.88
2023-02-12T06:38:05.887Z,33.35
2023-02-12T06:40:32.959Z,36.30
2023-02-12T06:42:59.985Z,41.50
2023-02-12T06:45:27.061Z,43.05
2023-02-12T06:47:53.781Z,44.67
2023-02-12T06:50:20.877Z,46.65
2023-02-12T06:52:48.981Z,48.88
2023-02-12T06:55:16.096Z,48.03
2023-02-12T06:57:43.036Z,45.28
2023-02-12T07:00:11.003Z,43.97
2023-02-12T07:02:39.135Z,44.30
2023-02-12T07:05:06.453Z,49.40
2023-02-12T07:07:33.416Z,44.15
2023-02-12T07:10:01.467Z,37.20
2023-02-12T07:12:28.185Z,42.58
2023-02-12T07:14:54.901Z,48.58
2023-02-12T07:17:21.741Z,39.17
2023-02-12T07:19:48.490Z,45.38
2023-02-12T07:22:15.359Z,35.17
2023-02-12T07:24:42.080Z,41.75
2023-02-12T07:27:10.135Z,43.47
2023-02-12T07:29:36.855Z,38.53
2023-02-12T07:32:04.038Z,39.58
2023-02-12T07:34:30.922Z,45.90
2023-02-12T07:36:57.721Z,45.45
2023-02-12T07:39:24.538Z,42.50
2023-02-12T07:41:51.334Z,44.72
2023-02-12T07:44:19.504Z,45.22
2023-02-12T07:46:48.854Z,44.60
2023-02-12T07:49:17.502Z,44.85
2023-02-12T07:51:44.350Z,44.15
2023-02-12T07:54:11.257Z,40.20
2023-02-12T07:56:40.160Z,66.00
2023-02-12T07:59:10.434Z,60.70
2023-02-12T08:01:40.489Z,45.28
2023-02-12T08:04:09.328Z,43.47
2023-02-12T08:06:38.506Z,49.33
2023-02-12T08:09:06.885Z,40.70
2023-02-12T08:11:34.185Z,47.40
2023-02-12T08:14:01.243Z,42.05
2023-02-12T08:16:28.836Z,38.60
2023-02-12T08:19:07.203Z,41.00
2023-02-12T08:21:41.717Z,44.08
2023-02-12T08:24:09.792Z,45.53
2023-02-12T08:26:38.566Z,39.33
2023-02-12T08:29:07.266Z,44.60
2023-02-12T08:31:35.197Z,41.05
2023-02-12T08:34:04.155Z,46.60
2023-02-12T08:36:34.999Z,47.67
2023-02-12T08:39:01.977Z,43.40
2023-02-12T08:41:29.882Z,42.03
2023-02-12T08:43:58.074Z,49.15
2023-02-12T08:46:26.845Z,42.72
2023-02-12T08:48:54.931Z,50.53
2023-02-12T08:51:24.806Z,40.97
2023-02-12T08:53:53.352Z,39.85
2023-02-12T08:56:20.291Z,35.55
2023-02-12T08:58:47.513Z,40.78
2023-02-12T09:01:16.426Z,43.15
2023-02-12T09:03:43.659Z,36.22
2023-02-12T09:06:10.831Z,38.97
2023-02-12T09:08:39.338Z,39.97
2023-02-12T09:11:06.978Z,38.50
2023-02-12T09:13:33.981Z,42.28
2023-02-12T09:16:01.437Z,38.65
2023-02-12T09:18:29.254Z,40.78
2023-02-12T09:21:00.277Z,33.67
2023-02-12T09:23:26.998Z,38.17
2023-02-12T09:25:55.400Z,35.50
2023-02-12T09:28:22.755Z,38.72
2023-02-12T09:30:49.763Z,39.90
2023-02-12T09:33:16.533Z,36.40
2023-02-12T09:35:43.267Z,31.60
2023-02-12T09:38:10.065Z,36.42
2023-02-12T09:40:44.335Z,35.30
2023-02-12T09:43:17.807Z,35.03
2023-02-12T09:45:51.578Z,33.88
2023-02-12T09:48:33.638Z,30.95
2023-02-12T09:51:05.314Z,35.80
2023-02-12T09:53:35.043Z,37.38
2023-02-12T09:56:01.972Z,31.23
2023-02-12T09:58:35.387Z,32.80
2023-02-12T10:01:09.997Z,29.50
2023-02-12T10:03:36.845Z,41.10
2023-02-12T10:06:07.462Z,33.72
2023-02-12T10:09:07.006Z,28.73
2023-02-12T10:11:49.324Z,25.85
2023-02-12T10:14:48.618Z,20.27
2023-02-12T10:17:22.480Z,22.55
2023-02-12T10:20:11.861Z,25.10
2023-02-12T10:22:56.481Z,27.98
2023-02-12T10:25:30.295Z,20.83
2023-02-12T10:28:00.504Z,15.70
2023-02-12T10:30:37.588Z,15.88
2023-02-12T10:33:09.685Z,21.77
2023-02-12T10:35:36.793Z,15.82
2023-02-12T10:38:07.599Z,16.30
2023-02-12T10:40:36.094Z,20.58
2023-02-12T10:43:02.991Z,30.30
2023-02-12T10:45:33.659Z,45.35
2023-02-12T10:48:08.021Z,35.45
2023-02-12T10:50:49.897Z,40.38
2023-02-12T10:53:21.386Z,30.50
2023-02-12T10:55:48.455Z,21.25
2023-02-12T10:58:21.685Z,21.38
2023-02-12T11:00:57.004Z,33.73
2023-02-12T11:03:29.118Z,24.88
2023-02-12T11:05:56.506Z,24.67
2023-02-12T11:08:31.467Z,20.38
2023-02-12T11:11:05.095Z,27.55
2023-02-12T11:13:32.384Z,82.80
2023-02-12T11:16:00.780Z,33.97
2023-02-12T11:18:29.963Z,76.70
2023-02-12T11:20:58.518Z,31.23
2023-02-12T11:23:27.754Z,27.15
2023-02-12T11:25:57.953Z,26.77
2023-02-12T11:28:25.259Z,23.85
2023-02-12T11:30:54.998Z,23.52
2023-02-12T11:33:29.430Z,26.05
2023-02-12T11:35:59.070Z,23.80
2023-02-12T11:38:29.801Z,25.85
2023-02-12T11:41:03.652Z,24.42
2023-02-12T11:43:33.396Z,19.00
2023-02-12T11:46:00.933Z,21.65
2023-02-12T11:48:32.887Z,22.20
2023-02-12T11:51:02.456Z,29.27
2023-02-12T11:53:31.939Z,19.77
2023-02-12T11:56:01.662Z,19.50
2023-02-12T11:58:29.256Z,20.55
2023-02-12T12:01:05.971Z,19.65
2023-02-12T12:03:44.058Z,17.63
2023-02-12T12:06:22.672Z,20.35
2023-02-12T12:08:54.247Z,92.13
2023-02-12T12:11:25.232Z,22.15
2023-02-12T12:14:00.467Z,13.98
2023-02-12T12:16:31.807Z,16.73
2023-02-12T12:19:04.442Z,25.77
2023-02-12T12:21:39.915Z,23.55
2023-02-12T12:24:13.516Z,19.50
2023-02-12T12:26:46.343Z,26.17
2023-02-12T12:29:20.193Z,22.55
2023-02-12T12:31:50.405Z,23.92
2023-02-12T12:34:22.134Z,24.05
2023-02-12T12:37:09.760Z,30.70
2023-02-12T12:39:44.933Z,25.85
2023-02-12T12:42:36.892Z,20.13
2023-02-12T12:45:24.938Z,23.02
2023-02-12T12:48:06.369Z,19.25
2023-02-12T12:50:51.797Z,21.42
2023-02-12T12:53:34.825Z,19.55
2023-02-12T12:56:19.053Z,22.35
2023-02-12T12:59:07.701Z,18.20
2023-02-12T13:02:08.724Z,23.15
2023-02-12T13:05:03.742Z,21.77
2023-02-12T13:07:47.457Z,17.23
2023-02-12T13:10:33.137Z,29.20
2023-02-12T13:13:21.894Z,22.73
2023-02-12T13:15:56.305Z,30.90
2023-02-12T13:18:35.622Z,21.70
2023-02-12T13:21:12.849Z,28.55
2023-02-12T13:23:48.676Z,30.85
2023-02-12T13:26:21.549Z,23.80
2023-02-12T13:28:53.770Z,18.38
2023-02-12T13:31:33.389Z,25.35
2023-02-12T13:34:03.617Z,28.15
2023-02-12T13:36:30.435Z,28.15
2023-02-12T13:39:04.693Z,35.85
2023-02-12T13:41:32.423Z,28.92
2023-02-12T13:44:10.716Z,30.00
2023-02-12T13:46:50.548Z,25.15
2023-02-12T13:49:32.313Z,22.27
2023-02-12T13:52:02.883Z,25.63
2023-02-12T13:54:43.980Z,26.42
2023-02-12T13:57:15.120Z,21.10
2023-02-12T13:59:47.057Z,21.95
2023-02-12T14:02:42.351Z,22.00
2023-02-12T14:05:23.761Z,19.10
2023-02-12T14:07:52.755Z,22.27
2023-02-12T14:10:29.037Z,17.92
2023-02-12T14:13:09.087Z,19.05
2023-02-12T14:15:37.768Z,17.08
2023-02-12T14:18:07.383Z,16.05
2023-02-12T14:20:35.588Z,16.77
2023-02-12T14:23:19.284Z,17.02
2023-02-12T14:25:55.986Z,16.38
2023-02-12T14:28:27.260Z,18.10
2023-02-12T14:31:29.583Z,18.95
2023-02-12T14:34:29.764Z,12.65
2023-02-12T14:37:11.942Z,21.50
2023-02-12T14:39:38.705Z,23.15
2023-02-12T14:42:54.265Z,14.85
2023-02-12T14:45:29.019Z,16.45
2023-02-12T14:47:55.953Z,18.83
2023-02-12T14:50:28.756Z,16.42
2023-02-12T14:53:04.145Z,17.23
2023-02-12T14:55:33.783Z,15.80
2023-02-12T14:58:05.822Z,15.02
2023-02-12T15:00:36.918Z,13.18
2023-02-12T15:03:18.310Z,12.65
2023-02-12T15:05:51.246Z,16.40
2023-02-12T15:08:26.933Z,25.10
2023-02-12T15:10:58.016Z,21.85
2023-02-12T15:13:29.448Z,21.55
2023-02-12T15:16:02.187Z,23.40
2023-02-12T15:18:35.549Z,24.45
2023-02-12T15:21:13.141Z,24.35
2023-02-12T15:23:41.225Z,22.40
2023-02-12T15:26:14.333Z,26.13
2023-02-12T15:28:43.289Z,22.40
2023-02-12T15:31:10.763Z,20.77
2023-02-12T15:33:41.658Z,21.25
2023-02-12T15:36:10.550Z,28.13
2023-02-12T15:38:40.191Z,20.77
2023-02-12T15:41:07.374Z,26.60
2023-02-12T15:43:39.480Z,30.25
2023-02-12T15:46:17.128Z,28.10
2023-02-12T15:48:44.791Z,23.35
2023-02-12T15:51:17.892Z,17.92
2023-02-12T15:53:44.973Z,21.20
2023-02-12T15:56:15.152Z,21.88
2023-02-12T15:58:48.020Z,24.92
2023-02-12T16:01:18.614Z,18.83
2023-02-12T16:03:49.948Z,25.13
2023-02-12T16:06:18.602Z,17.55
2023-02-12T16:08:48.203Z,17.05
2023-02-12T16:11:19.599Z,15.95
2023-02-12T16:13:49.616Z,24.77
2023-02-12T16:16:21.691Z,19.85
2023-02-12T16:19:08.392Z,29.88
2023-02-12T16:21:38.073Z,28.00
2023-02-12T16:24:18.154Z,21.63
2023-02-12T16:26:47.450Z,21.95
2023-02-12T16:29:16.689Z,23.02
2023-02-12T16:31:55.362Z,18.88
2023-02-12T16:34:34.829Z,20.00
2023-02-12T16:37:02.133Z,24.77
2023-02-12T16:40:17.368Z,25.00
2023-02-12T16:42:56.936Z,26.60
2023-02-12T16:45:38.826Z,27.30
2023-02-12T16:48:17.659Z,17.30
2023-02-12T16:50:50.605Z,19.65
2023-02-12T16:53:38.391Z,22.42
2023-02-12T16:56:05.882Z,19.40
2023-02-12T16:58:32.663Z,17.60
2023-02-12T17:01:03.297Z,14.77
2023-02-12T17:03:31.597Z,20.55
2023-02-12T17:05:58.812Z,23.98
2023-02-12T17:08:25.754Z,27.45
2023-02-12T17:10:52.882Z,21.95
2023-02-12T17:13:19.810Z,27.83
2023-02-12T17:15:51.322Z,30.50
2023-02-12T17:18:18.336Z,32.83
2023-02-12T17:20:51.338Z,20.80
2023-02-12T17:23:18.246Z,20.63
2023-02-12T17:25:45.028Z,21.60
2023-02-12T17:28:11.752Z,22.42
2023-02-12T17:30:38.676Z,21.10
2023-02-12T17:33:05.393Z,26.67
2023-02-12T17:35:32.137Z,27.45
2023-02-12T17:38:00.257Z,25.83
2023-02-12T17:40:26.966Z,24.30
2023-02-12T17:42:54.047Z,17.65
2023-02-12T17:45:20.770Z,18.67
2023-02-12T17:47:47.550Z,19.00
2023-02-12T17:50:15.742Z,23.50
2023-02-12T17:52:42.704Z,25.38
2023-02-12T17:55:11.105Z,49.08
2023-02-12T17:57:38.237Z,62.85
2023-02-12T18:00:06.295Z,32.80
2023-02-12T18:02:33.067Z,50.92
2023-02-12T18:04:59.814Z,23.38
2023-02-12T18:07:26.539Z,24.15
2023-02-12T18:09:53.319Z,19.80
2023-02-12T18:12:21.396Z,26.58
2023-02-12T18:14:48.159Z,33.65
2023-02-12T18:17:14.972Z,28.42
2023-02-12T18:19:41.728Z,34.28
2023-02-12T18:22:08.430Z,30.25
2023-02-12T18:24:35.190Z,26.65
2023-02-12T18:27:01.983Z,33.13
2023-02-12T18:29:30.068Z,30.88
2023-02-12T18:31:57.237Z,22.23
2023-02-12T18:34:24.720Z,34.72
2023-02-12T18:36:51.510Z,36.90
2023-02-12T18:39:18.254Z,26.42
2023-02-12T18:41:44.966Z,23.33
2023-02-12T18:44:11.869Z,28.83
2023-02-12T18:46:40.170Z,23.08
2023-02-12T18:49:07.482Z,27.20
2023-02-12T18:51:34.587Z,30.52
2023-02-12T18:54:06.345Z,30.48
2023-02-12T18:56:36.647Z,30.30
2023-02-12T18:59:05.092Z,28.45
2023-02-12T19:01:33.610Z,24.10
2023-02-12T19:04:03.234Z,34.53
2023-02-12T19:06:31.214Z,32.28
2023-02-12T19:09:00.207Z,29.80
2023-02-12T19:11:28.012Z,37.78
2023-02-12T19:13:55.026Z,50.67
2023-02-12T19:16:23.500Z,131.63
2023-02-12T19:18:51.030Z,53.63
2023-02-12T19:21:19.129Z,69.00
2023-02-12T19:23:45.839Z,61.08
2023-02-12T19:26:15.439Z,46.05
2023-02-12T19:28:42.696Z,43.88
2023-02-12T19:31:10.472Z,39.97
2023-02-12T19:33:37.368Z,30.45
2023-02-12T19:36:04.522Z,36.47
2023-02-12T19:38:33.574Z,37.33
2023-02-12T19:41:03.348Z,30.13
2023-02-12T19:43:30.336Z,29.45
2023-02-12T19:46:01.649Z,27.38
2023-02-12T19:48:28.490Z,28.35
2023-02-12T19:50:55.605Z,28.40
2023-02-12T19:53:22.590Z,33.30
2023-02-12T19:55:50.739Z,28.67
2023-02-12T19:58:17.470Z,32.33
2023-02-12T20:00:44.599Z,36.85
2023-02-12T20:03:11.514Z,33.28
2023-02-12T20:05:38.241Z,37.53
2023-02-12T20:08:05.154Z,35.92
2023-02-12T20:10:31.948Z,33.72
2023-02-12T20:13:00.005Z,32.42
2023-02-12T20:15:26.788Z,39.22
2023-02-12T20:17:53.506Z,42.38
2023-02-12T20:20:20.474Z,37.13
2023-02-12T20:22:47.215Z,40.30
2023-02-12T20:25:13.943Z,44.70
2023-02-12T20:27:40.687Z,46.60
2023-02-12T20:30:09.990Z,40.75
2023-02-12T20:32:36.750Z,38.45
2023-02-12T20:35:03.546Z,31.90
2023-02-12T20:37:30.305Z,31.90
2023-02-12T20:39:57.037Z,29.35
2023-02-12T20:42:23.808Z,33.90
2023-02-12T20:44:50.564Z,26.60
2023-02-12T20:47:18.638Z,23.60
2023-02-12T20:49:45.336Z,25.92
2023-02-12T20:52:12.213Z,25.17
2023-02-12T20:54:38.947Z,29.73
2023-02-12T20:57:05.632Z,26.90
2023-02-12T20:59:32.507Z,26.85
2023-02-12T21:01:59.296Z,27.55
2023-02-12T21:04:29.289Z,21.38
2023-02-12T21:06:58.729Z,25.90
2023-02-12T21:09:25.587Z,22.30
2023-02-12T21:11:52.391Z,21.67
2023-02-12T21:14:22.305Z,19.50
2023-02-12T21:16:50.362Z,20.58
2023-02-12T21:19:18.029Z,29.50
2023-02-12T21:21:46.260Z,38.63
2023-02-12T21:24:14.574Z,21.52
2023-02-12T21:26:41.448Z,26.27
2023-02-12T21:29:08.176Z,24.38
2023-02-12T21:31:37.176Z,23.50
2023-02-12T21:34:05.349Z,26.05
2023-02-12T21:36:36.228Z,27.05
2023-02-12T21:39:06.340Z,23.55
2023-02-12T21:41:34.677Z,24.33
2023-02-12T21:44:03.927Z,28.60
2023-02-12T21:46:30.746Z,19.80
2023-02-12T21:48:58.709Z,23.30
2023-02-12T21:51:27.043Z,24.58
2023-02-12T21:53:55.694Z,19.25
2023-02-12T21:56:24.232Z,21.35
2023-02-12T21:58:51.846Z,21.17
2023-02-12T22:01:20.932Z,16.63
2023-02-12T22:03:47.690Z,19.23
2023-02-12T22:06:16.337Z,18.10
2023-02-12T22:08:43.074Z,20.27
2023-02-12T22:11:10.913Z,19.77
2023-02-12T22:13:39.372Z,20.83
2023-02-12T22:16:10.307Z,19.23
2023-02-12T22:18:37.421Z,17.85
2023-02-12T22:21:05.761Z,20.08
2023-02-12T22:23:33.283Z,18.02
2023-02-12T22:26:05.217Z,18.70
2023-02-12T22:28:32.289Z,22.15
2023-02-12T22:31:04.649Z,19.92
2023-02-12T22:33:31.405Z,19.27
2023-02-12T22:36:04.181Z,19.05
2023-02-12T22:38:33.492Z,15.20
2023-02-12T22:41:00.285Z,17.20
2023-02-12T22:43:29.088Z,14.68
2023-02-12T22:45:55.902Z,20.75
2023-02-12T22:48:24.515Z,18.33
2023-02-12T22:50:51.865Z,13.73
2023-02-12T22:53:18.654Z,17.80
2023-02-12T22:55:45.381Z,19.38
2023-02-12T22:58:12.264Z,17.55
2023-02-12T23:00:40.309Z,19.67
2023-02-12T23:03:07.272Z,18.20
2023-02-12T23:05:37.117Z,16.77
2023-02-12T23:08:04.124Z,12.75
2023-02-12T23:10:31.026Z,17.42
2023-02-12T23:12:57.801Z,17.15
2023-02-12T23:15:24.520Z,17.45
2023-02-12T23:17:51.660Z,20.48
2023-02-12T23:20:18.518Z,15.25
2023-02-12T23:22:46.608Z,16.85
2023-02-12T23:25:13.330Z,14.73
2023-02-12T23:27:40.075Z,11.93
2023-02-12T23:30:08.186Z,12.73
2023-02-12T23:32:34.899Z,10.52
2023-02-12T23:35:01.651Z,13.57
2023-02-12T23:37:28.404Z,12.52
2023-02-12T23:39:56.485Z,12.38
2023-02-12T23:42:23.224Z,18.45
2023-02-12T23:44:50.073Z,10.32
2023-02-12T23:47:16.804Z,14.60
2023-02-12T23:49:43.518Z,13.93
2023-02-12T23:52:10.238Z,13.63
2023-02-12T23:54:37.013Z,11.57
2023-02-12T23:57:05.159Z,15.15
2023-02-12T23:59:31.922Z,13.50
